sensor_id;sensor_type;location;lat;lon;timestamp;P1;durP1;ratioP1;P2;durP2;ratioP2
67776;SDS011;54576;52.020;5.536;2023-05-02T00:01:36;26.63;;;14.07;;
67776;SDS011;54576;52.020;5.536;2023-05-02T00:04:02;31.63;;;17.70;;
67776;SDS011;54576;52.020;5.536;2023-05-02T00:06:29;33.33;;;18.98;;
67776;SDS011;54576;52.020;5.536;2023-05-02T00:08:55;37.90;;;20.75;;
67776;SDS011;54576;52.020;5.536;2023-05-02T00:11:21;35.03;;;18.63;;
67776;SDS011;54576;52.020;5.536;2023-05-02T00:13:48;43.03;;;23.25;;
67776;SDS011;54576;52.020;5.536;2023-05-02T00:16:14;37.08;;;22.40;;
67776;SDS011;54576;52.020;5.536;2023-05-02T00:18:39;44.97;;;23.30;;
67776;SDS011;54576;52.020;5.536;2023-05-02T00:21:05;36.50;;;20.02;;
67776;SDS011;54576;52.020;5.536;2023-05-02T00:23:31;41.47;;;21.17;;
67776;SDS011;54576;52.020;5.536;2023-05-02T00:25:57;45.80;;;22.42;;
67776;SDS011;54576;52.020;5.536;2023-05-02T00:28:22;41.22;;;22.70;;
67776;SDS011;54576;52.020;5.536;2023-05-02T00:30:48;41.33;;;22.17;;
67776;SDS011;54576;52.020;5.536;2023-05-02T00:33:13;44.00;;;22.77;;
67776;SDS011;54576;52.020;5.536;2023-05-02T00:35:39;42.00;;;22.80;;
67776;SDS011;54576;52.020;5.536;2023-05-02T00:38:05;35.67;;;19.55;;
67776;SDS011;54576;52.020;5.536;2023-05-02T00:40:41;35.80;;;19.77;;
67776;SDS011;54576;52.020;5.536;2023-05-02T00:43:08;41.03;;;19.42;;
67776;SDS011;54576;52.020;5.536;2023-05-02T00:45:34;27.33;;;16.30;;
67776;SDS011;54576;52.020;5.536;2023-05-02T00:48:00;37.90;;;18.80;;
67776;SDS011;54576;52.020;5.536;2023-05-02T00:50:25;36.80;;;19.10;;
67776;SDS011;54576;52.020;5.536;2023-05-02T00:52:53;30.33;;;17.67;;
67776;SDS011;54576;52.020;5.536;2023-05-02T00:55:19;29.75;;;16.70;;
67776;SDS011;54576;52.020;5.536;2023-05-02T00:57:45;40.03;;;18.70;;
67776;SDS011;54576;52.020;5.536;2023-05-02T01:00:11;34.22;;;17.65;;
67776;SDS011;54576;52.020;5.536;2023-05-02T01:02:42;31.00;;;17.73;;
67776;SDS011;54576;52.020;5.536;2023-05-02T01:05:22;34.55;;;17.80;;
67776;SDS011;54576;52.020;5.536;2023-05-02T01:10:50;32.30;;;16.90;;
67776;SDS011;54576;52.020;5.536;2023-05-02T01:13:21;31.92;;;16.65;;
67776;SDS011;54576;52.020;5.536;2023-05-02T01:15:52;30.05;;;15.63;;
67776;SDS011;54576;52.020;5.536;2023-05-02T01:18:21;32.95;;;15.60;;
67776;SDS011;54576;52.020;5.536;2023-05-02T01:20:59;28.05;;;14.38;;
67776;SDS011;54576;52.020;5.536;2023-05-02T01:23:34;28.23;;;13.35;;
67776;SDS011;54576;52.020;5.536;2023-05-02T01:27:32;29.65;;;15.70;;
67776;SDS011;54576;52.020;5.536;2023-05-02T01:29:36;19.42;;;11.77;;
67776;SDS011;54576;52.020;5.536;2023-05-02T01:32:04;25.73;;;10.45;;
67776;SDS011;54576;52.020;5.536;2023-05-02T01:34:31;18.20;;;6.10;;
67776;SDS011;54576;52.020;5.536;2023-05-02T01:36:58;19.67;;;6.53;;
67776;SDS011;54576;52.020;5.536;2023-05-02T01:39:27;22.70;;;7.13;;
67776;SDS011;54576;52.020;5.536;2023-05-02T01:41:54;10.50;;;5.50;;
67776;SDS011;54576;52.020;5.536;2023-05-02T01:44:22;16.70;;;5.60;;
67776;SDS011;54576;52.020;5.536;2023-05-02T01:46:49;12.48;;;4.70;;
67776;SDS011;54576;52.020;5.536;2023-05-02T01:49:16;10.48;;;3.13;;
67776;SDS011;54576;52.020;5.536;2023-05-02T01:51:44;10.30;;;2.70;;
67776;SDS011;54576;52.020;5.536;2023-05-02T01:56:39;8.05;;;2.17;;
67776;SDS011;54576;52.020;5.536;2023-05-02T01:59:07;10.73;;;2.80;;
67776;SDS011;54576;52.020;5.536;2023-05-02T02:01:35;8.07;;;1.90;;
67776;SDS011;54576;52.020;5.536;2023-05-02T02:04:03;4.32;;;1.60;;
67776;SDS011;54576;52.020;5.536;2023-05-02T02:06:31;7.10;;;2.38;;
67776;SDS011;54576;52.020;5.536;2023-05-02T02:08:57;9.45;;;2.00;;
67776;SDS011;54576;52.020;5.536;2023-05-02T02:11:24;4.72;;;1.63;;
67776;SDS011;54576;52.020;5.536;2023-05-02T02:14:00;9.77;;;2.08;;
67776;SDS011;54576;52.020;5.536;2023-05-02T02:16:36;6.35;;;1.63;;
67776;SDS011;54576;52.020;5.536;2023-05-02T02:19:05;9.05;;;1.63;;
67776;SDS011;54576;52.020;5.536;2023-05-02T02:21:34;8.23;;;1.95;;
67776;SDS011;54576;52.020;5.536;2023-05-02T02:24:01;12.80;;;2.08;;
67776;SDS011;54576;52.020;5.536;2023-05-02T02:26:27;11.95;;;2.50;;
67776;SDS011;54576;52.020;5.536;2023-05-02T02:28:54;12.32;;;2.83;;
67776;SDS011;54576;52.020;5.536;2023-05-02T02:31:20;18.67;;;2.42;;
67776;SDS011;54576;52.020;5.536;2023-05-02T02:33:45;14.20;;;2.42;;
67776;SDS011;54576;52.020;5.536;2023-05-02T02:36:13;12.85;;;2.33;;
67776;SDS011;54576;52.020;5.536;2023-05-02T02:38:49;16.98;;;1.98;;
67776;SDS011;54576;52.020;5.536;2023-05-02T02:41:26;10.10;;;2.35;;
67776;SDS011;54576;52.020;5.536;2023-05-02T02:49:34;8.52;;;2.10;;
67776;SDS011;54576;52.020;5.536;2023-05-02T02:52:13;13.50;;;2.30;;
67776;SDS011;54576;52.020;5.536;2023-05-02T02:55:11;12.25;;;2.03;;
67776;SDS011;54576;52.020;5.536;2023-05-02T02:57:57;13.25;;;1.83;;
67776;SDS011;54576;52.020;5.536;2023-05-02T03:00:31;6.80;;;1.67;;
67776;SDS011;54576;52.020;5.536;2023-05-02T03:02:59;10.77;;;2.03;;
67776;SDS011;54576;52.020;5.536;2023-05-02T03:05:24;13.70;;;1.80;;
67776;SDS011;54576;52.020;5.536;2023-05-02T03:07:50;12.20;;;2.40;;
67776;SDS011;54576;52.020;5.536;2023-05-02T03:10:16;7.60;;;1.75;;
67776;SDS011;54576;52.020;5.536;2023-05-02T03:12:42;10.40;;;1.75;;
67776;SDS011;54576;52.020;5.536;2023-05-02T03:17:36;5.97;;;1.67;;
67776;SDS011;54576;52.020;5.536;2023-05-02T03:20:04;5.85;;;1.52;;
67776;SDS011;54576;52.020;5.536;2023-05-02T03:22:30;2.25;;;1.02;;
67776;SDS011;54576;52.020;5.536;2023-05-02T03:24:56;8.25;;;1.40;;
67776;SDS011;54576;52.020;5.536;2023-05-02T03:27:21;6.15;;;1.60;;
67776;SDS011;54576;52.020;5.536;2023-05-02T03:29:47;7.60;;;2.00;;
67776;SDS011;54576;52.020;5.536;2023-05-02T03:32:12;13.50;;;1.73;;
67776;SDS011;54576;52.020;5.536;2023-05-02T03:34:38;6.38;;;1.20;;
67776;SDS011;54576;52.020;5.536;2023-05-02T03:37:05;11.00;;;1.42;;
67776;SDS011;54576;52.020;5.536;2023-05-02T03:39:33;10.57;;;1.50;;
67776;SDS011;54576;52.020;5.536;2023-05-02T03:41:59;9.40;;;1.33;;
67776;SDS011;54576;52.020;5.536;2023-05-02T03:44:25;6.07;;;1.48;;
67776;SDS011;54576;52.020;5.536;2023-05-02T03:46:51;17.25;;;1.90;;
67776;SDS011;54576;52.020;5.536;2023-05-02T03:49:16;7.05;;;2.15;;
67776;SDS011;54576;52.020;5.536;2023-05-02T03:51:43;8.73;;;1.60;;
67776;SDS011;54576;52.020;5.536;2023-05-02T03:54:09;5.32;;;1.58;;
67776;SDS011;54576;52.020;5.536;2023-05-02T03:56:34;8.68;;;1.63;;
67776;SDS011;54576;52.020;5.536;2023-05-02T03:59:01;6.90;;;1.90;;
67776;SDS011;54576;52.020;5.536;2023-05-02T04:01:27;12.68;;;2.17;;
67776;SDS011;54576;52.020;5.536;2023-05-02T04:03:53;2.63;;;1.50;;
67776;SDS011;54576;52.020;5.536;2023-05-02T04:06:19;11.25;;;2.20;;
67776;SDS011;54576;52.020;5.536;2023-05-02T04:08:44;11.35;;;2.20;;
67776;SDS011;54576;52.020;5.536;2023-05-02T04:11:10;8.80;;;2.05;;
67776;SDS011;54576;52.020;5.536;2023-05-02T04:13:35;8.15;;;2.22;;
67776;SDS011;54576;52.020;5.536;2023-05-02T04:16:01;7.75;;;1.55;;
67776;SDS011;54576;52.020;5.536;2023-05-02T04:18:28;14.02;;;2.20;;
67776;SDS011;54576;52.020;5.536;2023-05-02T04:20:54;11.45;;;1.75;;
67776;SDS011;54576;52.020;5.536;2023-05-02T04:23:20;7.47;;;1.10;;
67776;SDS011;54576;52.020;5.536;2023-05-02T04:25:52;10.63;;;1.90;;
67776;SDS011;54576;52.020;5.536;2023-05-02T04:28:22;11.02;;;2.08;;
67776;SDS011;54576;52.020;5.536;2023-05-02T04:30:48;12.00;;;1.63;;
67776;SDS011;54576;52.020;5.536;2023-05-02T04:33:14;7.03;;;1.55;;
67776;SDS011;54576;52.020;5.536;2023-05-02T04:35:40;16.15;;;2.17;;
67776;SDS011;54576;52.020;5.536;2023-05-02T04:38:05;10.15;;;1.67;;
67776;SDS011;54576;52.020;5.536;2023-05-02T04:40:32;10.57;;;1.67;;
67776;SDS011;54576;52.020;5.536;2023-05-02T04:42:58;8.98;;;1.83;;
67776;SDS011;54576;52.020;5.536;2023-05-02T04:45:24;9.60;;;1.77;;
67776;SDS011;54576;52.020;5.536;2023-05-02T04:47:50;9.48;;;1.98;;
67776;SDS011;54576;52.020;5.536;2023-05-02T04:50:15;8.07;;;1.80;;
67776;SDS011;54576;52.020;5.536;2023-05-02T04:52:41;16.42;;;2.03;;
67776;SDS011;54576;52.020;5.536;2023-05-02T04:55:06;10.60;;;2.00;;
67776;SDS011;54576;52.020;5.536;2023-05-02T04:57:32;10.05;;;1.73;;
67776;SDS011;54576;52.020;5.536;2023-05-02T04:59:58;12.90;;;1.55;;
67776;SDS011;54576;52.020;5.536;2023-05-02T05:02:23;4.40;;;1.13;;
67776;SDS011;54576;52.020;5.536;2023-05-02T05:04:50;10.95;;;1.83;;
67776;SDS011;54576;52.020;5.536;2023-05-02T05:07:16;13.38;;;2.08;;
67776;SDS011;54576;52.020;5.536;2023-05-02T05:09:41;8.57;;;1.65;;
67776;SDS011;54576;52.020;5.536;2023-05-02T05:12:07;13.55;;;2.10;;
67776;SDS011;54576;52.020;5.536;2023-05-02T05:14:32;14.02;;;2.47;;
67776;SDS011;54576;52.020;5.536;2023-05-02T05:16:58;8.32;;;1.60;;
67776;SDS011;54576;52.020;5.536;2023-05-02T05:19:24;5.93;;;1.83;;
67776;SDS011;54576;52.020;5.536;2023-05-02T05:21:50;8.05;;;1.75;;
67776;SDS011;54576;52.020;5.536;2023-05-02T05:24:15;9.75;;;2.22;;
67776;SDS011;54576;52.020;5.536;2023-05-02T05:26:41;12.77;;;2.22;;
67776;SDS011;54576;52.020;5.536;2023-05-02T05:29:07;12.10;;;3.60;;
67776;SDS011;54576;52.020;5.536;2023-05-02T05:31:32;12.07;;;2.28;;
67776;SDS011;54576;52.020;5.536;2023-05-02T05:33:58;12.63;;;2.33;;
67776;SDS011;54576;52.020;5.536;2023-05-02T05:36:25;16.60;;;2.03;;
67776;SDS011;54576;52.020;5.536;2023-05-02T05:38:51;17.85;;;2.63;;
67776;SDS011;54576;52.020;5.536;2023-05-02T05:41:17;12.43;;;2.78;;
67776;SDS011;54576;52.020;5.536;2023-05-02T05:43:42;12.07;;;2.80;;
67776;SDS011;54576;52.020;5.536;2023-05-02T05:46:08;9.93;;;2.60;;
67776;SDS011;54576;52.020;5.536;2023-05-02T05:48:33;12.88;;;2.53;;
67776;SDS011;54576;52.020;5.536;2023-05-02T05:51:03;18.60;;;2.53;;
67776;SDS011;54576;52.020;5.536;2023-05-02T05:53:29;19.73;;;2.75;;
67776;SDS011;54576;52.020;5.536;2023-05-02T05:55:55;15.25;;;2.60;;
67776;SDS011;54576;52.020;5.536;2023-05-02T05:58:21;19.50;;;2.92;;
67776;SDS011;54576;52.020;5.536;2023-05-02T06:00:47;19.70;;;3.10;;
67776;SDS011;54576;52.020;5.536;2023-05-02T06:03:13;22.40;;;3.13;;
67776;SDS011;54576;52.020;5.536;2023-05-02T06:05:38;18.10;;;4.50;;
67776;SDS011;54576;52.020;5.536;2023-05-02T06:08:04;14.82;;;2.38;;
67776;SDS011;54576;52.020;5.536;2023-05-02T06:10:30;12.35;;;2.58;;
67776;SDS011;54576;52.020;5.536;2023-05-02T06:12:59;28.90;;;3.67;;
67776;SDS011;54576;52.020;5.536;2023-05-02T06:15:24;17.27;;;3.40;;
67776;SDS011;54576;52.020;5.536;2023-05-02T06:17:50;14.90;;;2.60;;
67776;SDS011;54576;52.020;5.536;2023-05-02T06:20:18;13.05;;;2.88;;
67776;SDS011;54576;52.020;5.536;2023-05-02T06:22:44;15.48;;;2.50;;
67776;SDS011;54576;52.020;5.536;2023-05-02T06:25:10;19.75;;;3.45;;
67776;SDS011;54576;52.020;5.536;2023-05-02T06:27:35;20.63;;;3.10;;
67776;SDS011;54576;52.020;5.536;2023-05-02T06:30:01;18.42;;;2.35;;
67776;SDS011;54576;52.020;5.536;2023-05-02T06:32:29;23.33;;;3.35;;
67776;SDS011;54576;52.020;5.536;2023-05-02T06:37:21;13.45;;;3.00;;
67776;SDS011;54576;52.020;5.536;2023-05-02T06:39:47;16.92;;;2.55;;
67776;SDS011;54576;52.020;5.536;2023-05-02T06:42:12;7.22;;;1.77;;
67776;SDS011;54576;52.020;5.536;2023-05-02T06:44:38;11.93;;;2.53;;
67776;SDS011;54576;52.020;5.536;2023-05-02T06:47:03;7.82;;;1.65;;
67776;SDS011;54576;52.020;5.536;2023-05-02T06:49:32;8.33;;;1.80;;
67776;SDS011;54576;52.020;5.536;2023-05-02T06:51:57;13.45;;;1.90;;
67776;SDS011;54576;52.020;5.536;2023-05-02T06:54:23;6.03;;;1.80;;
67776;SDS011;54576;52.020;5.536;2023-05-02T06:56:49;8.23;;;2.33;;
67776;SDS011;54576;52.020;5.536;2023-05-02T06:59:15;9.32;;;3.08;;
67776;SDS011;54576;52.020;5.536;2023-05-02T07:01:42;4.20;;;1.10;;
67776;SDS011;54576;52.020;5.536;2023-05-02T07:04:08;14.73;;;1.95;;
67776;SDS011;54576;52.020;5.536;2023-05-02T07:06:33;8.45;;;1.67;;
67776;SDS011;54576;52.020;5.536;2023-05-02T07:08:59;9.85;;;1.90;;
67776;SDS011;54576;52.020;5.536;2023-05-02T07:11:25;6.45;;;2.03;;
67776;SDS011;54576;52.020;5.536;2023-05-02T07:13:51;8.93;;;1.88;;
67776;SDS011;54576;52.020;5.536;2023-05-02T07:16:17;3.13;;;1.42;;
67776;SDS011;54576;52.020;5.536;2023-05-02T07:18:43;13.10;;;2.08;;
67776;SDS011;54576;52.020;5.536;2023-05-02T07:21:11;14.43;;;2.20;;
67776;SDS011;54576;52.020;5.536;2023-05-02T07:23:37;10.35;;;2.13;;
67776;SDS011;54576;52.020;5.536;2023-05-02T07:26:02;16.13;;;1.90;;
67776;SDS011;54576;52.020;5.536;2023-05-02T07:28:29;15.43;;;3.05;;
67776;SDS011;54576;52.020;5.536;2023-05-02T07:30:55;19.33;;;2.95;;
67776;SDS011;54576;52.020;5.536;2023-05-02T07:33:21;9.88;;;2.30;;
67776;SDS011;54576;52.020;5.536;2023-05-02T07:35:47;13.85;;;2.00;;
67776;SDS011;54576;52.020;5.536;2023-05-02T07:38:13;11.05;;;2.40;;
67776;SDS011;54576;52.020;5.536;2023-05-02T07:40:39;9.93;;;2.13;;
67776;SDS011;54576;52.020;5.536;2023-05-02T07:43:05;11.15;;;2.80;;
67776;SDS011;54576;52.020;5.536;2023-05-02T07:45:30;9.32;;;2.05;;
67776;SDS011;54576;52.020;5.536;2023-05-02T07:47:56;10.45;;;2.40;;
67776;SDS011;54576;52.020;5.536;2023-05-02T07:50:21;10.25;;;2.13;;
67776;SDS011;54576;52.020;5.536;2023-05-02T07:52:47;12.48;;;2.53;;
67776;SDS011;54576;52.020;5.536;2023-05-02T07:55:13;17.70;;;2.42;;
67776;SDS011;54576;52.020;5.536;2023-05-02T07:57:39;11.20;;;1.70;;
67776;SDS011;54576;52.020;5.536;2023-05-02T08:00:05;8.07;;;2.03;;
67776;SDS011;54576;52.020;5.536;2023-05-02T08:02:33;7.57;;;2.00;;
67776;SDS011;54576;52.020;5.536;2023-05-02T08:05:02;7.70;;;1.80;;
67776;SDS011;54576;52.020;5.536;2023-05-02T08:07:28;19.33;;;2.00;;
67776;SDS011;54576;52.020;5.536;2023-05-02T08:09:55;6.65;;;2.25;;
67776;SDS011;54576;52.020;5.536;2023-05-02T08:12:21;9.35;;;1.83;;
67776;SDS011;54576;52.020;5.536;2023-05-02T08:14:46;7.55;;;2.25;;
67776;SDS011;54576;52.020;5.536;2023-05-02T08:17:12;10.10;;;2.03;;
67776;SDS011;54576;52.020;5.536;2023-05-02T08:19:37;18.33;;;2.03;;
67776;SDS011;54576;52.020;5.536;2023-05-02T08:22:03;11.48;;;2.08;;
67776;SDS011;54576;52.020;5.536;2023-05-02T08:24:28;11.57;;;2.30;;
67776;SDS011;54576;52.020;5.536;2023-05-02T08:26:55;4.75;;;1.00;;
67776;SDS011;54576;52.020;5.536;2023-05-02T08:29:21;7.10;;;2.00;;
67776;SDS011;54576;52.020;5.536;2023-05-02T08:31:47;14.38;;;2.60;;
67776;SDS011;54576;52.020;5.536;2023-05-02T08:34:13;11.38;;;1.80;;
67776;SDS011;54576;52.020;5.536;2023-05-02T08:36:38;4.60;;;1.63;;
67776;SDS011;54576;52.020;5.536;2023-05-02T08:39:04;15.20;;;3.05;;
67776;SDS011;54576;52.020;5.536;2023-05-02T08:41:32;5.25;;;1.63;;
67776;SDS011;54576;52.020;5.536;2023-05-02T08:43:57;12.77;;;2.33;;
67776;SDS011;54576;52.020;5.536;2023-05-02T08:46:23;12.15;;;1.75;;
67776;SDS011;54576;52.020;5.536;2023-05-02T08:48:50;8.38;;;1.92;;
67776;SDS011;54576;52.020;5.536;2023-05-02T08:51:16;6.57;;;2.40;;
67776;SDS011;54576;52.020;5.536;2023-05-02T08:53:43;5.53;;;1.50;;
67776;SDS011;54576;52.020;5.536;2023-05-02T08:56:10;16.45;;;2.33;;
67776;SDS011;54576;52.020;5.536;2023-05-02T08:58:37;13.65;;;2.50;;
67776;SDS011;54576;52.020;5.536;2023-05-02T09:01:16;11.40;;;1.67;;
67776;SDS011;54576;52.020;5.536;2023-05-02T09:03:44;6.38;;;1.65;;
67776;SDS011;54576;52.020;5.536;2023-05-02T09:06:12;12.43;;;1.90;;
67776;SDS011;54576;52.020;5.536;2023-05-02T09:08:41;8.05;;;2.20;;
67776;SDS011;54576;52.020;5.536;2023-05-02T09:11:16;6.60;;;1.67;;
67776;SDS011;54576;52.020;5.536;2023-05-02T09:13:43;4.93;;;1.38;;
67776;SDS011;54576;52.020;5.536;2023-05-02T09:18:45;11.82;;;2.10;;
67776;SDS011;54576;52.020;5.536;2023-05-02T09:21:19;8.65;;;1.85;;
67776;SDS011;54576;52.020;5.536;2023-05-02T09:23:50;6.63;;;1.75;;
67776;SDS011;54576;52.020;5.536;2023-05-02T09:26:17;9.80;;;1.23;;
67776;SDS011;54576;52.020;5.536;2023-05-02T09:28:47;1.85;;;1.08;;
67776;SDS011;54576;52.020;5.536;2023-05-02T09:31:15;5.47;;;1.30;;
67776;SDS011;54576;52.020;5.536;2023-05-02T09:33:42;2.97;;;1.23;;
67776;SDS011;54576;52.020;5.536;2023-05-02T09:36:09;13.85;;;1.90;;
67776;SDS011;54576;52.020;5.536;2023-05-02T09:38:38;8.95;;;1.98;;
67776;SDS011;54576;52.020;5.536;2023-05-02T09:41:04;4.68;;;1.38;;
67776;SDS011;54576;52.020;5.536;2023-05-02T09:43:30;1.92;;;1.00;;
67776;SDS011;54576;52.020;5.536;2023-05-02T09:45:57;11.40;;;1.50;;
67776;SDS011;54576;52.020;5.536;2023-05-02T09:48:31;6.88;;;1.27;;
67776;SDS011;54576;52.020;5.536;2023-05-02T09:51:15;7.70;;;1.70;;
67776;SDS011;54576;52.020;5.536;2023-05-02T09:53:42;8.82;;;1.58;;
67776;SDS011;54576;52.020;5.536;2023-05-02T09:56:08;8.60;;;1.15;;
67776;SDS011;54576;52.020;5.536;2023-05-02T09:58:34;11.40;;;1.60;;
67776;SDS011;54576;52.020;5.536;2023-05-02T10:01:00;7.63;;;1.67;;
67776;SDS011;54576;52.020;5.536;2023-05-02T10:03:26;8.85;;;1.70;;
67776;SDS011;54576;52.020;5.536;2023-05-02T10:05:52;8.70;;;1.60;;
67776;SDS011;54576;52.020;5.536;2023-05-02T10:08:19;8.13;;;1.48;;
67776;SDS011;54576;52.020;5.536;2023-05-02T10:10:52;6.07;;;1.80;;
67776;SDS011;54576;52.020;5.536;2023-05-02T10:13:22;8.88;;;1.88;;
67776;SDS011;54576;52.020;5.536;2023-05-02T10:16:01;11.07;;;1.85;;
67776;SDS011;54576;52.020;5.536;2023-05-02T10:21:00;4.93;;;1.65;;
67776;SDS011;54576;52.020;5.536;2023-05-02T10:23:32;3.80;;;1.25;;
67776;SDS011;54576;52.020;5.536;2023-05-02T10:25:58;8.07;;;1.63;;
67776;SDS011;54576;52.020;5.536;2023-05-02T10:28:27;7.50;;;1.60;;
67776;SDS011;54576;52.020;5.536;2023-05-02T10:30:54;7.50;;;1.40;;
67776;SDS011;54576;52.020;5.536;2023-05-02T10:33:21;5.70;;;1.77;;
67776;SDS011;54576;52.020;5.536;2023-05-02T10:35:47;5.82;;;1.75;;
67776;SDS011;54576;52.020;5.536;2023-05-02T10:38:17;7.40;;;1.90;;
67776;SDS011;54576;52.020;5.536;2023-05-02T10:40:48;5.32;;;1.50;;
67776;SDS011;54576;52.020;5.536;2023-05-02T10:43:20;7.32;;;2.58;;
67776;SDS011;54576;52.020;5.536;2023-05-02T10:45:50;5.60;;;2.30;;
67776;SDS011;54576;52.020;5.536;2023-05-02T10:48:21;10.38;;;1.80;;
67776;SDS011;54576;52.020;5.536;2023-05-02T10:50:53;2.70;;;1.35;;
67776;SDS011;54576;52.020;5.536;2023-05-02T10:53:26;5.30;;;1.58;;
67776;SDS011;54576;52.020;5.536;2023-05-02T10:56:17;8.07;;;1.75;;
67776;SDS011;54576;52.020;5.536;2023-05-02T10:58:50;15.00;;;1.93;;
67776;SDS011;54576;52.020;5.536;2023-05-02T11:01:30;7.88;;;2.17;;
67776;SDS011;54576;52.020;5.536;2023-05-02T11:06:30;9.90;;;1.83;;
67776;SDS011;54576;52.020;5.536;2023-05-02T11:11:42;7.82;;;2.17;;
67776;SDS011;54576;52.020;5.536;2023-05-02T11:14:09;11.13;;;1.63;;
67776;SDS011;54576;52.020;5.536;2023-05-02T11:17:04;8.38;;;2.10;;
67776;SDS011;54576;52.020;5.536;2023-05-02T11:24:47;7.78;;;1.90;;
67776;SDS011;54576;52.020;5.536;2023-05-02T11:30:06;5.68;;;1.52;;
67776;SDS011;54576;52.020;5.536;2023-05-02T11:35:18;8.70;;;1.90;;
67776;SDS011;54576;52.020;5.536;2023-05-02T11:37:53;9.77;;;1.63;;
67776;SDS011;54576;52.020;5.536;2023-05-02T11:40:19;5.57;;;2.30;;
67776;SDS011;54576;52.020;5.536;2023-05-02T11:42:46;12.15;;;1.95;;
67776;SDS011;54576;52.020;5.536;2023-05-02T11:45:12;17.75;;;2.30;;
67776;SDS011;54576;52.020;5.536;2023-05-02T11:47:37;6.32;;;1.70;;
67776;SDS011;54576;52.020;5.536;2023-05-02T11:50:05;9.35;;;2.03;;
67776;SDS011;54576;52.020;5.536;2023-05-02T11:52:38;11.43;;;2.83;;
67776;SDS011;54576;52.020;5.536;2023-05-02T11:55:05;6.22;;;1.48;;
67776;SDS011;54576;52.020;5.536;2023-05-02T11:57:32;9.63;;;2.40;;
67776;SDS011;54576;52.020;5.536;2023-05-02T11:59:58;15.32;;;2.85;;
67776;SDS011;54576;52.020;5.536;2023-05-02T12:02:34;5.63;;;2.15;;
67776;SDS011;54576;52.020;5.536;2023-05-02T12:05:03;6.03;;;1.85;;
67776;SDS011;54576;52.020;5.536;2023-05-02T12:07:42;8.18;;;2.05;;
67776;SDS011;54576;52.020;5.536;2023-05-02T12:10:10;11.18;;;2.28;;
67776;SDS011;54576;52.020;5.536;2023-05-02T12:12:36;10.43;;;2.00;;
67776;SDS011;54576;52.020;5.536;2023-05-02T12:15:07;10.63;;;3.03;;
67776;SDS011;54576;52.020;5.536;2023-05-02T12:17:38;5.50;;;2.13;;
67776;SDS011;54576;52.020;5.536;2023-05-02T12:20:06;11.13;;;2.50;;
67776;SDS011;54576;52.020;5.536;2023-05-02T12:22:33;10.35;;;2.78;;
67776;SDS011;54576;52.020;5.536;2023-05-02T12:24:59;10.45;;;2.95;;
67776;SDS011;54576;52.020;5.536;2023-05-02T12:27:25;6.13;;;2.13;;
67776;SDS011;54576;52.020;5.536;2023-05-02T12:29:53;16.45;;;2.30;;
67776;SDS011;54576;52.020;5.536;2023-05-02T12:32:28;17.23;;;2.90;;
67776;SDS011;54576;52.020;5.536;2023-05-02T12:34:55;10.18;;;2.78;;
67776;SDS011;54576;52.020;5.536;2023-05-02T12:37:22;9.40;;;2.75;;
67776;SDS011;54576;52.020;5.536;2023-05-02T12:39:48;10.13;;;2.95;;
67776;SDS011;54576;52.020;5.536;2023-05-02T12:42:15;12.48;;;2.38;;
67776;SDS011;54576;52.020;5.536;2023-05-02T12:44:42;10.82;;;2.45;;
67776;SDS011;54576;52.020;5.536;2023-05-02T12:49:53;12.13;;;2.47;;
67776;SDS011;54576;52.020;5.536;2023-05-02T12:52:21;13.45;;;2.08;;
67776;SDS011;54576;52.020;5.536;2023-05-02T12:55:18;10.13;;;2.67;;
67776;SDS011;54576;52.020;5.536;2023-05-02T13:00:10;6.45;;;2.05;;
67776;SDS011;54576;52.020;5.536;2023-05-02T13:02:36;9.65;;;2.33;;
67776;SDS011;54576;52.020;5.536;2023-05-02T13:05:12;11.60;;;2.20;;
67776;SDS011;54576;52.020;5.536;2023-05-02T13:07:38;15.45;;;2.65;;
67776;SDS011;54576;52.020;5.536;2023-05-02T13:10:04;3.45;;;1.67;;
67776;SDS011;54576;52.020;5.536;2023-05-02T13:12:30;15.57;;;2.65;;
67776;SDS011;54576;52.020;5.536;2023-05-02T13:14:55;13.32;;;2.53;;
67776;SDS011;54576;52.020;5.536;2023-05-02T13:17:21;11.93;;;3.00;;
67776;SDS011;54576;52.020;5.536;2023-05-02T13:19:46;12.50;;;2.40;;
67776;SDS011;54576;52.020;5.536;2023-05-02T13:22:12;8.73;;;2.28;;
67776;SDS011;54576;52.020;5.536;2023-05-02T13:24:37;12.32;;;2.38;;
67776;SDS011;54576;52.020;5.536;2023-05-02T13:27:03;11.82;;;1.90;;
67776;SDS011;54576;52.020;5.536;2023-05-02T13:29:29;10.65;;;2.28;;
67776;SDS011;54576;52.020;5.536;2023-05-02T13:31:55;8.20;;;2.10;;
67776;SDS011;54576;52.020;5.536;2023-05-02T13:34:21;8.00;;;1.77;;
67776;SDS011;54576;52.020;5.536;2023-05-02T13:36:46;2.85;;;1.50;;
67776;SDS011;54576;52.020;5.536;2023-05-02T13:39:12;10.82;;;2.20;;
67776;SDS011;54576;52.020;5.536;2023-05-02T13:41:37;4.90;;;1.90;;
67776;SDS011;54576;52.020;5.536;2023-05-02T13:44:03;10.13;;;2.13;;
67776;SDS011;54576;52.020;5.536;2023-05-02T13:46:29;10.07;;;2.00;;
67776;SDS011;54576;52.020;5.536;2023-05-02T13:49:00;7.38;;;2.33;;
67776;SDS011;54576;52.020;5.536;2023-05-02T13:51:27;9.77;;;2.70;;
67776;SDS011;54576;52.020;5.536;2023-05-02T13:53:59;7.22;;;1.73;;
67776;SDS011;54576;52.020;5.536;2023-05-02T13:56:25;10.13;;;1.55;;
67776;SDS011;54576;52.020;5.536;2023-05-02T13:58:51;8.70;;;2.97;;
67776;SDS011;54576;52.020;5.536;2023-05-02T14:01:16;10.55;;;2.08;;
67776;SDS011;54576;52.020;5.536;2023-05-02T14:03:42;9.23;;;2.17;;
67776;SDS011;54576;52.020;5.536;2023-05-02T14:06:08;5.50;;;1.65;;
67776;SDS011;54576;52.020;5.536;2023-05-02T14:08:33;6.63;;;2.28;;
67776;SDS011;54576;52.020;5.536;2023-05-02T14:10:59;16.67;;;2.25;;
67776;SDS011;54576;52.020;5.536;2023-05-02T14:13:25;7.28;;;2.42;;
67776;SDS011;54576;52.020;5.536;2023-05-02T14:15:51;9.95;;;2.13;;
67776;SDS011;54576;52.020;5.536;2023-05-02T14:18:17;10.23;;;2.58;;
67776;SDS011;54576;52.020;5.536;2023-05-02T14:20:43;5.70;;;1.60;;
67776;SDS011;54576;52.020;5.536;2023-05-02T14:23:09;7.15;;;2.10;;
67776;SDS011;54576;52.020;5.536;2023-05-02T14:25:35;7.32;;;2.50;;
67776;SDS011;54576;52.020;5.536;2023-05-02T14:28:00;8.20;;;1.80;;
67776;SDS011;54576;52.020;5.536;2023-05-02T14:30:26;11.88;;;1.75;;
67776;SDS011;54576;52.020;5.536;2023-05-02T14:32:52;7.13;;;1.55;;
67776;SDS011;54576;52.020;5.536;2023-05-02T14:35:18;1.48;;;1.05;;
67776;SDS011;54576;52.020;5.536;2023-05-02T14:37:44;8.40;;;1.80;;
67776;SDS011;54576;52.020;5.536;2023-05-02T14:40:11;9.13;;;2.25;;
67776;SDS011;54576;52.020;5.536;2023-05-02T14:42:37;15.85;;;2.45;;
67776;SDS011;54576;52.020;5.536;2023-05-02T14:45:08;10.35;;;2.17;;
67776;SDS011;54576;52.020;5.536;2023-05-02T14:47:34;8.40;;;1.50;;
67776;SDS011;54576;52.020;5.536;2023-05-02T14:50:03;7.85;;;1.58;;
67776;SDS011;54576;52.020;5.536;2023-05-02T14:52:29;6.13;;;2.13;;
67776;SDS011;54576;52.020;5.536;2023-05-02T14:54:57;10.15;;;1.70;;
67776;SDS011;54576;52.020;5.536;2023-05-02T14:57:23;15.50;;;2.25;;
67776;SDS011;54576;52.020;5.536;2023-05-02T14:59:49;1.75;;;0.80;;
67776;SDS011;54576;52.020;5.536;2023-05-02T15:02:15;6.72;;;2.10;;
67776;SDS011;54576;52.020;5.536;2023-05-02T15:04:40;5.32;;;1.80;;
67776;SDS011;54576;52.020;5.536;2023-05-02T15:07:06;8.50;;;1.83;;
67776;SDS011;54576;52.020;5.536;2023-05-02T15:09:31;6.10;;;1.85;;
67776;SDS011;54576;52.020;5.536;2023-05-02T15:11:57;8.52;;;1.80;;
67776;SDS011;54576;52.020;5.536;2023-05-02T15:14:22;9.20;;;2.10;;
67776;SDS011;54576;52.020;5.536;2023-05-02T15:16:48;8.95;;;2.05;;
67776;SDS011;54576;52.020;5.536;2023-05-02T15:19:14;6.80;;;1.60;;
67776;SDS011;54576;52.020;5.536;2023-05-02T15:21:39;4.93;;;1.60;;
67776;SDS011;54576;52.020;5.536;2023-05-02T15:24:05;10.57;;;1.90;;